메인 페이지
METAR-TAF:

METAR-TAF

공항 :

미콜라이우, 우크라이나

위도: 47-03-29N, 경도: 031-55-15E, 고도: 56m

현재 날씨관측

예보는 1 시간 4분 전, 08:00시(UTC)에 발표되었습니다.
남남동6kt동남동풍과 풍을 오가는
온도 5°C
습도 87%
기압 1016 hPa
시정: 8000m

METAR: UKON 090800Z 15003MPS 120V190 8000 NSC 05/03 Q1016 NOSIG

시각: 11:04 (09:04 UTC)

예보

예보는 1 시간 1분 전, 08:03시(UTC)에 발표되었습니다.
예보 대상 시간: 09일 09시부터 09일 18시까지 (UTC)
10kt, 순간 최대 풍속 21kt
시정: 2100m
고도 400ft 상공 구름 보통
고도 700ft 상공 구름 많음
고도 2000ft 상공 구름 많음, 적란운.
박무

TAF: UKON 090803Z 0909/0918 17005G11MPS 2100 BR SCT004 BKN007 BKN020CB TX09/0913Z TN04/0918Z

4,000개 이상의 공항 관측 자료 및 예보 (METAR 및 TAF 보고).

지도상에서 검색 가능한 기상관측소가 노란 점과 빨간 점으로 표시되어 있습니다.

기상관측소 명을 보려면 표시 위로 마우스를 이동하세요.

날씨 관측과 예보를 보려면 클릭하세요.

지도 변경 : 확대하려면 엑스 표시가 있는 녹색 버튼, 축소하려면 빼기 표시가 있는 녹색 버튼, 다음 페이지의 지도를 보려면 녹색 화살표를 클릭하세요.


METAR-TAF: